Terminal Aerodrome Forecast
Issued by NWS

Home | Current Version | Previous Version | Graphics & Text | Print | Product List | Glossary On
Versions: 1 2 3 4 5 6 7 8 9 10 11 12 13 14 15 16 17 18 19 20
000
FTUS43 KICT 160900 AAB
TAFRSL
TAF AMD
KRSL 160953Z 1610/1706 07006KT P6SM SCT030
      TEMPO 1611/1614 5SM BR BKN025
     FM161400 14007KT P6SM BKN025
     FM161600 16012KT P6SM BKN035=

USA.gov is the U.S. government's official web portal to all federal, state and local government web resources and services.